Alexander Hamilton — WDC2088 — position and weather

sailwx.info

Track history (hours):
 
Tides and Currents Weather Stations Pressure Air Temp Water Temp Dewpoint Dewpoint Depression Visibility Wind Speed Wind Dir Waves Ship Positions

Alexander Hamilton

Owner: PORT IMPERIAL FERRY CORP, WEEKAWKEN, NJ. More information available from US FCC via Universal Licensing System and Coast Guard Vessel Documentation Center.

Last reported at 2017-Oct-21 23:47 UTC. Time now 2017-Oct-22 08:16 UTC.
Position N 40°46' W 074°00'.

Length 29 m; draft 3 m.

Type: Passenger vessel. MMSI: 366987610.

Date/timePositionNaut miles runAvg speedWind from/ knotsBaromVisibWave heightAir tempDewpointWater temp
2017-Oct-21 23:47N 40°46' W 074°00'1 2.2
2017-Oct-21 23:30N 40°45' W 074°01'4 7.5
2017-Oct-21 23:00N 40°42' W 074°01'0 0.5
2017-Oct-21 22:05N 40°42' W 074°01'0 4.6
2017-Oct-21 21:59N 40°42' W 074°01'0 0.1
2017-Oct-21 20:58N 40°42' W 074°01'0 0.5
2017-Oct-21 20:08N 40°42' W 074°01'0 3.5
2017-Oct-21 20:00N 40°42' W 074°01'0 0.2
2017-Oct-21 19:04N 40°42' W 074°01'0 2.9
2017-Oct-21 19:00N 40°42' W 074°01'0 0.5
2017-Oct-21 18:15N 40°42' W 074°01'0 1.6
2017-Oct-21 18:00N 40°42' W 074°01'0 0.0
2017-Oct-21 17:30N 40°42' W 074°01'0 0.8
2017-Oct-21 16:53N 40°42' W 074°01'0 1.3
2017-Oct-21 16:30N 40°42' W 074°01'0 0.1
2017-Oct-21 15:34N 40°42' W 074°01'0 1.9
2017-Oct-21 15:30N 40°42' W 074°01'3 5.8
2017-Oct-21 15:00N 40°45' W 074°01'2 4.1
2017-Oct-21 14:30N 40°47' W 074°01'0 0.0
2017-Oct-20 22:54N 40°47' W 074°01'2 3.6
2017-Oct-20 22:29N 40°45' W 074°01'4 8.0
2017-Oct-20 22:00N 40°41' W 074°01'0 0.0
2017-Oct-20 21:30N 40°41' W 074°01'0 0.0
2017-Oct-20 21:00N 40°41' W 074°01'0 0.0
2017-Oct-20 20:28N 40°41' W 074°01'0 0.3
2017-Oct-20 20:00N 40°41' W 074°01'0 0.2
2017-Oct-20 19:23N 40°41' W 074°01'1 2.2
2017-Oct-20 19:00N 40°42' W 074°01'1 1.7
2017-Oct-20 18:30N 40°41' W 074°01'1 1.0
2017-Oct-20 17:39N 40°42' W 074°01'1 6.3
2017-Oct-20 17:31N 40°41' W 074°01'1 1.4
2017-Oct-20 16:54N 40°42' W 074°01'1 2.3
2017-Oct-20 16:30N 40°41' W 074°01'1 1.8
2017-Oct-20 16:00N 40°42' W 074°01'0 0.0
2017-Oct-20 15:30N 40°42' W 074°01'0 0.0
2017-Oct-20 14:52N 40°42' W 074°01'4 4.9
2017-Oct-20 14:00N 40°46' W 074°01'0 0.7
2017-Oct-20 13:31N 40°47' W 074°01'1 1.8
2017-Oct-20 13:00N 40°46' W 074°00'1 2.0
2017-Oct-20 12:30N 40°47' W 074°01'1 1.9
2017-Oct-20 12:00N 40°46' W 074°00'1 1.9
2017-Oct-20 11:30N 40°47' W 074°01'1 1.9
2017-Oct-20 10:59N 40°46' W 074°00'0 0.0
2017-Oct-20 10:30N 40°46' W 074°00'1 1.9
2017-Oct-20 10:00N 40°47' W 074°01'0 0.0
2017-Oct-20 09:30N 40°47' W 074°01'0 0.0
2017-Oct-20 09:00N 40°47' W 074°01'0 0.0
2017-Oct-19 23:49N 40°47' W 074°01'0 0.1
2017-Oct-19 23:30N 40°47' W 074°01'1 1.9
2017-Oct-19 23:00N 40°46' W 074°00'1 1.8
2017-Oct-19 22:30N 40°47' W 074°00'1 1.4
2017-Oct-19 21:59N 40°46' W 074°00'1 1.5
2017-Oct-19 21:30N 40°47' W 074°01'1 1.8
2017-Oct-19 21:00N 40°46' W 074°00'1 1.8
2017-Oct-19 20:30N 40°47' W 074°01'0 0.0
2017-Oct-19 13:44N 40°47' W 074°01'0 0.6
2017-Oct-19 13:29N 40°47' W 074°01'1 2.1
2017-Oct-19 13:00N 40°46' W 074°00'1 2.0
2017-Oct-19 12:30N 40°47' W 074°01'1 2.0
2017-Oct-19 12:00N 40°46' W 074°00'1 1.9
2017-Oct-19 11:29N 40°47' W 074°01'1 1.9
2017-Oct-19 11:00N 40°46' W 074°00'0 0.0
2017-Oct-19 10:29N 40°46' W 074°00'1 2.0
2017-Oct-19 10:00N 40°47' W 074°01'0 0.0
2017-Oct-19 09:30N 40°47' W 074°01'0 0.0
2017-Oct-19 08:59N 40°47' W 074°01'0 0.0
2017-Oct-19 08:28N 40°47' W 074°01'0 0.0
2017-Oct-18 23:48N 40°47' W 074°01'0 0.0
2017-Oct-18 23:29N 40°47' W 074°01'1 1.3
2017-Oct-18 22:57N 40°46' W 074°00'1 1.6
2017-Oct-18 22:30N 40°47' W 074°01'1 2.0
2017-Oct-18 22:00N 40°46' W 074°00'1 1.9
2017-Oct-18 21:30N 40°47' W 074°01'1 2.0
2017-Oct-18 21:00N 40°46' W 074°00'1 2.0
2017-Oct-18 20:30N 40°47' W 074°01'0 0.1
2017-Oct-18 14:00N 40°46' W 074°01'0 0.6
2017-Oct-18 13:29N 40°47' W 074°01'1 2.1
2017-Oct-18 13:00N 40°46' W 074°00'1 1.9
2017-Oct-18 12:30N 40°47' W 074°01'1 2.0
2017-Oct-18 12:01N 40°46' W 074°00'1 1.9
2017-Oct-18 11:30N 40°47' W 074°01'1 1.9
2017-Oct-18 11:00N 40°46' W 074°00'0 0.0
2017-Oct-18 10:30N 40°46' W 074°00'1 1.9
2017-Oct-18 10:00N 40°47' W 074°01'0 0.0
2017-Oct-18 04:17N 40°47' W 074°01'0 0.1
2017-Oct-18 04:00N 40°47' W 074°01'1 1.8
2017-Oct-18 03:30N 40°46' W 074°00'1 2.0
2017-Oct-18 03:00N 40°47' W 074°01'1 2.0
2017-Oct-18 02:30N 40°46' W 074°00'1 1.9
2017-Oct-18 02:00N 40°47' W 074°01'1 1.9
2017-Oct-18 01:30N 40°46' W 074°00'1 0.6
2017-Oct-17 23:48N 40°47' W 074°01'0 0.0
2017-Oct-17 23:30N 40°47' W 074°01'1 1.9
2017-Oct-17 23:00N 40°46' W 074°00'1 1.9
2017-Oct-17 22:30N 40°47' W 074°01'1 1.9
2017-Oct-17 22:00N 40°46' W 074°00'1 1.9
2017-Oct-17 21:30N 40°47' W 074°01'1 1.9
2017-Oct-17 21:00N 40°46' W 074°00'1 1.9
2017-Oct-17 20:30N 40°47' W 074°01'0 0.0
2017-Oct-17 13:45N 40°47' W 074°01'0 0.0
2017-Oct-17 13:30N 40°47' W 074°01'1 1.9
2017-Oct-17 13:00N 40°46' W 074°00'1 1.9
2017-Oct-17 12:30N 40°47' W 074°01'1 1.9
2017-Oct-17 12:00N 40°46' W 074°00'1 2.0
2017-Oct-17 11:31N 40°47' W 074°01'1 1.9
2017-Oct-17 11:00N 40°46' W 074°00'0 0.0
2017-Oct-17 10:30N 40°46' W 074°00'1 1.9
2017-Oct-17 10:00N 40°47' W 074°01'0 0.0
2017-Oct-17 09:30N 40°47' W 074°01'0 0.0
2017-Oct-17 09:00N 40°47' W 074°01'0 0.0
2017-Oct-17 08:30N 40°47' W 074°01'0 0.0
2017-Oct-16 23:48N 40°47' W 074°01'0 0.0
2017-Oct-16 23:30N 40°47' W 074°01'1 1.9
2017-Oct-16 23:00N 40°46' W 074°00'1 2.0
2017-Oct-16 22:30N 40°47' W 074°01'1 1.9
2017-Oct-16 22:00N 40°46' W 074°00'1 1.9
2017-Oct-16 21:30N 40°47' W 074°01'1 1.9
2017-Oct-16 21:00N 40°46' W 074°00'1 1.8
2017-Oct-16 20:29N 40°47' W 074°01'0 0.7
2017-Oct-16 20:00N 40°46' W 074°01'0 0.0
2017-Oct-16 19:30N 40°46' W 074°01'0 0.0
2017-Oct-16 19:00N 40°46' W 074°01'0 0.0
2017-Oct-16 18:29N 40°46' W 074°01'0 0.0
2017-Oct-16 18:00N 40°46' W 074°01'0 0.0
2017-Oct-16 17:30N 40°46' W 074°01'0 0.0
2017-Oct-16 17:00N 40°46' W 074°01'0 0.0
2017-Oct-16 16:30N 40°46' W 074°01'0 0.0
2017-Oct-16 16:00N 40°46' W 074°01'0 0.0
2017-Oct-16 15:30N 40°46' W 074°01'0 0.0
2017-Oct-16 15:00N 40°46' W 074°01'0 0.0
2017-Oct-16 14:00N 40°46' W 074°01'0 0.0
2017-Oct-16 13:30N 40°46' W 074°01'2 4.5
2017-Oct-16 13:00N 40°44' W 074°01'2 3.2
2017-Oct-16 12:29N 40°46' W 074°00'4 5.9
2017-Oct-16 11:46N 40°49' W 073°58'3 9.2
2017-Oct-16 11:30N 40°47' W 073°59'1 2.6
2017-Oct-16 11:00N 40°46' W 074°01'  
2017-Oct-13 23:16N 40°46' W 074°01'0 0.0
2017-Oct-13 23:00N 40°46' W 074°01'0 0.7
2017-Oct-13 22:30N 40°47' W 074°01'1 2.0
2017-Oct-13 22:01N 40°46' W 074°00'1 1.9
2017-Oct-13 21:31N 40°47' W 074°01'1 1.9
2017-Oct-13 21:00N 40°46' W 074°00'1 1.8
2017-Oct-13 20:29N 40°47' W 074°01'0 0.1
2017-Oct-13 20:00N 40°47' W 074°01'0 0.0
2017-Oct-13 13:47N 40°47' W 074°01'0 0.0
2017-Oct-13 13:30N 40°47' W 074°01'1 1.9
2017-Oct-13 13:00N 40°46' W 074°00'1 1.9
2017-Oct-13 12:30N 40°47' W 074°01'1 1.9
2017-Oct-13 12:00N 40°46' W 074°00'1 1.9
2017-Oct-13 11:30N 40°47' W 074°01'1 1.9
2017-Oct-13 11:00N 40°46' W 074°00'0 0.1
2017-Oct-13 10:30N 40°46' W 074°00'1 1.9
2017-Oct-13 10:00N 40°47' W 074°01'0 0.0
2017-Oct-13 00:00N 40°46' W 074°01'0 0.6
2017-Oct-12 23:30N 40°47' W 074°01'1 1.9
2017-Oct-12 23:00N 40°46' W 074°00'1 1.9
2017-Oct-12 22:29N 40°47' W 074°01'1 2.0
2017-Oct-12 22:00N 40°46' W 074°00'1 1.9
2017-Oct-12 21:31N 40°47' W 074°01'1 1.9
2017-Oct-12 21:00N 40°46' W 074°00'1 2.0
2017-Oct-12 20:30N 40°47' W 074°01'0 0.0
2017-Oct-12 13:45N 40°47' W 074°01'0 0.0
2017-Oct-12 13:29N 40°47' W 074°01'1 2.0
2017-Oct-12 13:00N 40°46' W 074°00'1 1.9
2017-Oct-12 12:30N 40°47' W 074°01'1 1.9
2017-Oct-12 11:59N 40°46' W 074°00'1 2.0
2017-Oct-12 11:30N 40°47' W 074°01'1 1.9
2017-Oct-12 11:00N 40°46' W 074°00'0 0.0
2017-Oct-12 10:30N 40°46' W 074°00'1 2.0
2017-Oct-12 10:00N 40°47' W 074°01'0 0.0
2017-Oct-11 23:48N 40°47' W 074°01'  
Track history (hours):
 
Tides and Currents Weather Stations Pressure Air Temp Water Temp Dewpoint Dewpoint Depression Visibility Wind Speed Wind Dir Waves Ship Positions

Alexander Hamilton

Owner: PORT IMPERIAL FERRY CORP, WEEKAWKEN, NJ. More information available from US FCC via Universal Licensing System and Coast Guard Vessel Documentation Center.

Last reported at 2017-Oct-21 23:47 UTC. Time now 2017-Oct-22 08:16 UTC.
Position N 40°46' W 074°00'.

Length 29 m; draft 3 m.

Type: Passenger vessel. MMSI: 366987610.

Date/timePositionNaut miles runAvg speedWind from/ knotsBaromVisibWave heightAir tempDewpointWater temp
2017-Oct-21 23:47N 40°46' W 074°00'1 2.2
2017-Oct-21 23:30N 40°45' W 074°01'4 7.5
2017-Oct-21 23:00N 40°42' W 074°01'0 0.5
2017-Oct-21 22:05N 40°42' W 074°01'0 4.6
2017-Oct-21 21:59N 40°42' W 074°01'0 0.1
2017-Oct-21 20:58N 40°42' W 074°01'0 0.5
2017-Oct-21 20:08N 40°42' W 074°01'0 3.5
2017-Oct-21 20:00N 40°42' W 074°01'0 0.2
2017-Oct-21 19:04N 40°42' W 074°01'0 2.9
2017-Oct-21 19:00N 40°42' W 074°01'0 0.5
2017-Oct-21 18:15N 40°42' W 074°01'0 1.6
2017-Oct-21 18:00N 40°42' W 074°01'0 0.0
2017-Oct-21 17:30N 40°42' W 074°01'0 0.8
2017-Oct-21 16:53N 40°42' W 074°01'0 1.3
2017-Oct-21 16:30N 40°42' W 074°01'0 0.1
2017-Oct-21 15:34N 40°42' W 074°01'0 1.9
2017-Oct-21 15:30N 40°42' W 074°01'3 5.8
2017-Oct-21 15:00N 40°45' W 074°01'2 4.1
2017-Oct-21 14:30N 40°47' W 074°01'0 0.0
2017-Oct-20 22:54N 40°47' W 074°01'2 3.6
2017-Oct-20 22:29N 40°45' W 074°01'4 8.0
2017-Oct-20 22:00N 40°41' W 074°01'0 0.0
2017-Oct-20 21:30N 40°41' W 074°01'0 0.0
2017-Oct-20 21:00N 40°41' W 074°01'0 0.0
2017-Oct-20 20:28N 40°41' W 074°01'0 0.3
2017-Oct-20 20:00N 40°41' W 074°01'0 0.2
2017-Oct-20 19:23N 40°41' W 074°01'1 2.2
2017-Oct-20 19:00N 40°42' W 074°01'1 1.7
2017-Oct-20 18:30N 40°41' W 074°01'1 1.0
2017-Oct-20 17:39N 40°42' W 074°01'1 6.3
2017-Oct-20 17:31N 40°41' W 074°01'1 1.4
2017-Oct-20 16:54N 40°42' W 074°01'1 2.3
2017-Oct-20 16:30N 40°41' W 074°01'1 1.8
2017-Oct-20 16:00N 40°42' W 074°01'0 0.0
2017-Oct-20 15:30N 40°42' W 074°01'0 0.0
2017-Oct-20 14:52N 40°42' W 074°01'4 4.9
2017-Oct-20 14:00N 40°46' W 074°01'0 0.7
2017-Oct-20 13:31N 40°47' W 074°01'1 1.8
2017-Oct-20 13:00N 40°46' W 074°00'1 2.0
2017-Oct-20 12:30N 40°47' W 074°01'1 1.9
2017-Oct-20 12:00N 40°46' W 074°00'1 1.9
2017-Oct-20 11:30N 40°47' W 074°01'1 1.9
2017-Oct-20 10:59N 40°46' W 074°00'0 0.0
2017-Oct-20 10:30N 40°46' W 074°00'1 1.9
2017-Oct-20 10:00N 40°47' W 074°01'0 0.0
2017-Oct-20 09:30N 40°47' W 074°01'0 0.0
2017-Oct-20 09:00N 40°47' W 074°01'0 0.0
2017-Oct-19 23:49N 40°47' W 074°01'0 0.1
2017-Oct-19 23:30N 40°47' W 074°01'1 1.9
2017-Oct-19 23:00N 40°46' W 074°00'1 1.8
2017-Oct-19 22:30N 40°47' W 074°00'1 1.4
2017-Oct-19 21:59N 40°46' W 074°00'1 1.5
2017-Oct-19 21:30N 40°47' W 074°01'1 1.8
2017-Oct-19 21:00N 40°46' W 074°00'1 1.8
2017-Oct-19 20:30N 40°47' W 074°01'0 0.0
2017-Oct-19 13:44N 40°47' W 074°01'0 0.6
2017-Oct-19 13:29N 40°47' W 074°01'1 2.1
2017-Oct-19 13:00N 40°46' W 074°00'1 2.0
2017-Oct-19 12:30N 40°47' W 074°01'1 2.0
2017-Oct-19 12:00N 40°46' W 074°00'1 1.9
2017-Oct-19 11:29N 40°47' W 074°01'1 1.9
2017-Oct-19 11:00N 40°46' W 074°00'0 0.0
2017-Oct-19 10:29N 40°46' W 074°00'1 2.0
2017-Oct-19 10:00N 40°47' W 074°01'0 0.0
2017-Oct-19 09:30N 40°47' W 074°01'0 0.0
2017-Oct-19 08:59N 40°47' W 074°01'0 0.0
2017-Oct-19 08:28N 40°47' W 074°01'0 0.0
2017-Oct-18 23:48N 40°47' W 074°01'0 0.0
2017-Oct-18 23:29N 40°47' W 074°01'1 1.3
2017-Oct-18 22:57N 40°46' W 074°00'1 1.6
2017-Oct-18 22:30N 40°47' W 074°01'1 2.0
2017-Oct-18 22:00N 40°46' W 074°00'1 1.9
2017-Oct-18 21:30N 40°47' W 074°01'1 2.0
2017-Oct-18 21:00N 40°46' W 074°00'1 2.0
2017-Oct-18 20:30N 40°47' W 074°01'0 0.1
2017-Oct-18 14:00N 40°46' W 074°01'0 0.6
2017-Oct-18 13:29N 40°47' W 074°01'1 2.1
2017-Oct-18 13:00N 40°46' W 074°00'1 1.9
2017-Oct-18 12:30N 40°47' W 074°01'1 2.0
2017-Oct-18 12:01N 40°46' W 074°00'1 1.9
2017-Oct-18 11:30N 40°47' W 074°01'1 1.9
2017-Oct-18 11:00N 40°46' W 074°00'0 0.0
2017-Oct-18 10:30N 40°46' W 074°00'1 1.9
2017-Oct-18 10:00N 40°47' W 074°01'0 0.0
2017-Oct-18 04:17N 40°47' W 074°01'0 0.1
2017-Oct-18 04:00N 40°47' W 074°01'1 1.8
2017-Oct-18 03:30N 40°46' W 074°00'1 2.0
2017-Oct-18 03:00N 40°47' W 074°01'1 2.0
2017-Oct-18 02:30N 40°46' W 074°00'1 1.9
2017-Oct-18 02:00N 40°47' W 074°01'1 1.9
2017-Oct-18 01:30N 40°46' W 074°00'1 0.6
2017-Oct-17 23:48N 40°47' W 074°01'0 0.0
2017-Oct-17 23:30N 40°47' W 074°01'1 1.9
2017-Oct-17 23:00N 40°46' W 074°00'1 1.9
2017-Oct-17 22:30N 40°47' W 074°01'1 1.9
2017-Oct-17 22:00N 40°46' W 074°00'1 1.9
2017-Oct-17 21:30N 40°47' W 074°01'1 1.9
2017-Oct-17 21:00N 40°46' W 074°00'1 1.9
2017-Oct-17 20:30N 40°47' W 074°01'0 0.0
2017-Oct-17 13:45N 40°47' W 074°01'0 0.0
2017-Oct-17 13:30N 40°47' W 074°01'1 1.9
2017-Oct-17 13:00N 40°46' W 074°00'1 1.9
2017-Oct-17 12:30N 40°47' W 074°01'1 1.9
2017-Oct-17 12:00N 40°46' W 074°00'1 2.0
2017-Oct-17 11:31N 40°47' W 074°01'1 1.9
2017-Oct-17 11:00N 40°46' W 074°00'0 0.0
2017-Oct-17 10:30N 40°46' W 074°00'1 1.9
2017-Oct-17 10:00N 40°47' W 074°01'0 0.0
2017-Oct-17 09:30N 40°47' W 074°01'0 0.0
2017-Oct-17 09:00N 40°47' W 074°01'0 0.0
2017-Oct-17 08:30N 40°47' W 074°01'0 0.0
2017-Oct-16 23:48N 40°47' W 074°01'0 0.0
2017-Oct-16 23:30N 40°47' W 074°01'1 1.9
2017-Oct-16 23:00N 40°46' W 074°00'1 2.0
2017-Oct-16 22:30N 40°47' W 074°01'1 1.9
2017-Oct-16 22:00N 40°46' W 074°00'1 1.9
2017-Oct-16 21:30N 40°47' W 074°01'1 1.9
2017-Oct-16 21:00N 40°46' W 074°00'1 1.8
2017-Oct-16 20:29N 40°47' W 074°01'0 0.7
2017-Oct-16 20:00N 40°46' W 074°01'0 0.0
2017-Oct-16 19:30N 40°46' W 074°01'0 0.0
2017-Oct-16 19:00N 40°46' W 074°01'0 0.0
2017-Oct-16 18:29N 40°46' W 074°01'0 0.0
2017-Oct-16 18:00N 40°46' W 074°01'0 0.0
2017-Oct-16 17:30N 40°46' W 074°01'0 0.0
2017-Oct-16 17:00N 40°46' W 074°01'0 0.0
2017-Oct-16 16:30N 40°46' W 074°01'0 0.0
2017-Oct-16 16:00N 40°46' W 074°01'0 0.0
2017-Oct-16 15:30N 40°46' W 074°01'0 0.0
2017-Oct-16 15:00N 40°46' W 074°01'0 0.0
2017-Oct-16 14:00N 40°46' W 074°01'0 0.0
2017-Oct-16 13:30N 40°46' W 074°01'2 4.5
2017-Oct-16 13:00N 40°44' W 074°01'2 3.2
2017-Oct-16 12:29N 40°46' W 074°00'4 5.9
2017-Oct-16 11:46N 40°49' W 073°58'3 9.2
2017-Oct-16 11:30N 40°47' W 073°59'1 2.6
2017-Oct-16 11:00N 40°46' W 074°01'  
2017-Oct-13 23:16N 40°46' W 074°01'0 0.0
2017-Oct-13 23:00N 40°46' W 074°01'0 0.7
2017-Oct-13 22:30N 40°47' W 074°01'1 2.0
2017-Oct-13 22:01N 40°46' W 074°00'1 1.9
2017-Oct-13 21:31N 40°47' W 074°01'1 1.9
2017-Oct-13 21:00N 40°46' W 074°00'1 1.8
2017-Oct-13 20:29N 40°47' W 074°01'0 0.1
2017-Oct-13 20:00N 40°47' W 074°01'0 0.0
2017-Oct-13 13:47N 40°47' W 074°01'0 0.0
2017-Oct-13 13:30N 40°47' W 074°01'1 1.9
2017-Oct-13 13:00N 40°46' W 074°00'1 1.9
2017-Oct-13 12:30N 40°47' W 074°01'1 1.9
2017-Oct-13 12:00N 40°46' W 074°00'1 1.9
2017-Oct-13 11:30N 40°47' W 074°01'1 1.9
2017-Oct-13 11:00N 40°46' W 074°00'0 0.1
2017-Oct-13 10:30N 40°46' W 074°00'1 1.9
2017-Oct-13 10:00N 40°47' W 074°01'0 0.0
2017-Oct-13 00:00N 40°46' W 074°01'0 0.6
2017-Oct-12 23:30N 40°47' W 074°01'1 1.9
2017-Oct-12 23:00N 40°46' W 074°00'1 1.9
2017-Oct-12 22:29N 40°47' W 074°01'1 2.0
2017-Oct-12 22:00N 40°46' W 074°00'1 1.9
2017-Oct-12 21:31N 40°47' W 074°01'1 1.9
2017-Oct-12 21:00N 40°46' W 074°00'1 2.0
2017-Oct-12 20:30N 40°47' W 074°01'0 0.0
2017-Oct-12 13:45N 40°47' W 074°01'0 0.0
2017-Oct-12 13:29N 40°47' W 074°01'1 2.0
2017-Oct-12 13:00N 40°46' W 074°00'1 1.9
2017-Oct-12 12:30N 40°47' W 074°01'1 1.9
2017-Oct-12 11:59N 40°46' W 074°00'1 2.0
2017-Oct-12 11:30N 40°47' W 074°01'1 1.9
2017-Oct-12 11:00N 40°46' W 074°00'0 0.0
2017-Oct-12 10:30N 40°46' W 074°00'1 2.0
2017-Oct-12 10:00N 40°47' W 074°01'0 0.0
2017-Oct-11 23:48N 40°47' W 074°01'  

Dump ship's entire track history